Time;durP1;ratioP1;P1;durP2;ratioP2;P2;SDS_P1;SDS_P2;PMS_P1;PMS_P2;Temp;Humidity;BMP_temperature;BMP_pressure;BME280_temperature;BME280_humidity;BME280_pressure;Samples;Min_cycle;Max_cycle;Signal;HPM_P1;HPM_P2
2022/11/15 00:02:18;;;;;;;0.10;0.10;;;;;;;0.06;46.92;100397.81;6146713;23;20025;-65
2022/11/15 00:05:03;;;;;;;0.47;0.10;;;;;;;0.09;46.84;100396.59;6183481;23;20017;-65
2022/11/15 00:07:47;;;;;;;0.10;0.10;;;;;;;0.13;46.77;100397.88;6173731;23;20408;-66
2022/11/15 00:10:32;;;;;;;0.13;0.13;;;;;;;0.18;46.59;100394.63;6173117;23;20503;-66
2022/11/15 00:13:16;;;;;;;0.10;0.10;;;;;;;0.04;46.60;100394.47;6186041;23;20429;-66
2022/11/15 00:16:02;;;;;;;0.10;0.10;;;;;;;0.03;46.69;100383.91;6172268;23;20082;-66
2022/11/15 00:18:47;;;;;;;0.10;0.10;;;;;;;0.01;46.21;100372.50;6160403;23;20338;-66
2022/11/15 00:21:31;;;;;;;0.10;0.10;;;;;;;0.11;46.49;100387.28;6174516;23;20021;-66
2022/11/15 00:24:16;;;;;;;0.10;0.10;;;;;;;0.15;46.50;100382.38;6179768;23;20021;-66
2022/11/15 00:27:00;;;;;;;0.10;0.10;;;;;;;0.13;46.45;100382.56;6184402;23;20499;-66
2022/11/15 00:29:44;;;;;;;0.10;0.10;;;;;;;0.15;46.57;100374.31;6173833;23;20056;-66
2022/11/15 00:32:32;;;;;;;0.00;0.00;;;;;;;0.21;46.47;100367.31;6170493;23;20087;-66
2022/11/15 00:35:17;;;;;;;0.10;0.10;;;;;;;0.24;46.60;100369.63;6187931;23;20035;-66
2022/11/15 00:38:02;;;;;;;0.10;0.10;;;;;;;0.25;46.63;100368.59;6173584;23;20025;-67
2022/11/15 00:40:47;;;;;;;0.10;0.10;;;;;;;0.24;46.74;100373.16;6174155;23;21011;-66
2022/11/15 00:43:32;;;;;;;0.10;0.10;;;;;;;0.27;46.83;100369.25;6183865;23;20036;-65
2022/11/15 00:46:16;;;;;;;0.10;0.10;;;;;;;0.28;46.76;100366.38;6185372;23;20409;-66
2022/11/15 00:49:02;;;;;;;0.10;0.10;;;;;;;0.26;46.92;100368.41;6184243;23;20033;-66
2022/11/15 00:51:46;;;;;;;0.43;0.10;;;;;;;0.24;46.81;100362.41;6182103;23;20017;-66
2022/11/15 00:54:31;;;;;;;0.00;0.00;;;;;;;0.22;46.98;100358.22;6175595;23;20095;-66
2022/11/15 00:57:16;;;;;;;0.10;0.10;;;;;;;0.20;47.07;100344.97;6174251;23;20021;-66
2022/11/15 01:00:00;;;;;;;0.10;0.10;;;;;;;0.16;46.95;100338.31;6184603;23;20045;-66
2022/11/15 01:02:45;;;;;;;0.10;0.10;;;;;;;0.11;46.78;100351.53;6175124;23;20025;-66
2022/11/15 01:05:31;;;;;;;0.63;0.20;;;;;;;0.11;46.82;100346.13;6184392;23;20035;-66
2022/11/15 01:08:16;;;;;;;0.10;0.10;;;;;;;0.13;46.71;100344.91;6153236;23;20045;-66
2022/11/15 01:11:01;;;;;;;0.10;0.10;;;;;;;0.16;46.71;100343.69;6182852;23;20032;-66
2022/11/15 01:13:46;;;;;;;0.10;0.10;;;;;;;0.14;46.79;100351.94;6182496;23;20111;-65
2022/11/15 01:16:30;;;;;;;0.10;0.10;;;;;;;0.14;46.68;100338.50;6173109;23;20025;-66
2022/11/15 01:19:15;;;;;;;0.10;0.10;;;;;;;0.16;46.70;100342.84;6167197;23;20021;-66
2022/11/15 01:22:02;;;;;;;0.10;0.10;;;;;;;0.14;46.74;100337.69;6148283;23;20579;-66
2022/11/15 01:24:47;;;;;;;0.10;0.10;;;;;;;0.04;46.82;100316.50;6176039;23;20535;-66
2022/11/15 01:27:31;;;;;;;0.00;0.00;;;;;;;0.11;46.68;100336.19;6173115;23;20128;-66
2022/11/15 01:30:15;;;;;;;0.10;0.10;;;;;;;0.10;47.02;100328.34;6173301;23;20510;-66
2022/11/15 01:33:00;;;;;;;0.10;0.10;;;;;;;0.12;46.87;100323.59;6182606;23;20025;-66
2022/11/15 01:35:44;;;;;;;0.10;0.10;;;;;;;0.09;46.97;100321.31;6183930;23;20112;-65
2022/11/15 01:38:30;;;;;;;0.10;0.10;;;;;;;0.04;46.98;100313.81;6174436;23;20527;-66
2022/11/15 01:41:17;;;;;;;0.10;0.10;;;;;;;-0.07;46.91;100301.72;6174706;23;20021;-67
2022/11/15 01:44:34;;;;;;;0.10;0.10;;;;;;;0.06;47.00;100317.13;6125255;23;20040;-67
2022/11/15 01:47:22;;;;;;;0.10;0.10;;;;;;;0.03;47.06;100311.28;6153086;23;20021;-67
2022/11/15 01:50:12;;;;;;;0.10;0.10;;;;;;;0.02;46.99;100320.38;6146528;23;20024;-67
2022/11/15 01:52:56;;;;;;;0.10;0.10;;;;;;;0.01;47.09;100324.09;6174612;23;20400;-67
2022/11/15 01:55:43;;;;;;;0.20;0.20;;;;;;;-0.02;47.19;100317.25;6176626;23;20025;-67
2022/11/15 01:58:27;;;;;;;0.10;0.10;;;;;;;-0.04;47.27;100319.28;6174843;23;20032;-67
2022/11/15 02:01:12;;;;;;;0.10;0.10;;;;;;;-0.05;47.21;100314.94;6172645;23;20123;-67
2022/11/15 02:04:02;;;;;;;0.20;0.20;;;;;;;-0.10;47.29;100314.69;6175511;23;20035;-67
2022/11/15 02:06:48;;;;;;;0.10;0.10;;;;;;;-0.12;47.33;100312.19;6160546;23;20021;-67
2022/11/15 02:09:32;;;;;;;0.20;0.10;;;;;;;-0.11;47.38;100311.16;6173654;23;20021;-67
2022/11/15 02:12:21;;;;;;;0.10;0.10;;;;;;;-0.12;47.32;100316.75;6171931;23;20021;-67
2022/11/15 02:15:08;;;;;;;0.43;0.28;;;;;;;-0.12;47.27;100317.56;6173086;23;20465;-67
2022/11/15 02:18:07;;;;;;;0.45;0.10;;;;;;;-0.11;47.56;100318.41;6173769;23;20021;-67
2022/11/15 02:21:16;;;;;;;0.10;0.10;;;;;;;-0.31;48.76;100317.16;6174077;23;20017;-64
2022/11/15 02:24:44;;;;;;;0.10;0.10;;;;;;;-0.62;49.61;100304.84;6172880;23;20265;-66
2022/11/15 02:28:06;;;;;;;0.10;0.10;;;;;;;-0.81;50.48;100302.75;6173549;23;20025;-67
2022/11/15 02:31:00;;;;;;;0.20;0.20;;;;;;;-0.90;51.20;100304.72;6181359;23;20427;-67
2022/11/15 02:33:53;;;;;;;0.10;0.10;;;;;;;-0.97;51.66;100306.47;6172651;23;20017;-67
2022/11/15 02:36:44;;;;;;;0.10;0.10;;;;;;;-1.03;51.45;100311.56;6171624;23;20115;-66
2022/11/15 02:39:35;;;;;;;0.10;0.10;;;;;;;-1.00;51.83;100294.25;6171740;23;20025;-66
2022/11/15 02:45:35;;;;;;;0.10;0.10;;;;;;;-1.05;52.43;100297.50;6179619;23;20083;-67
2022/11/15 02:48:23;;;;;;;0.10;0.10;;;;;;;-1.00;52.82;100297.75;6175710;23;20044;-67
2022/11/15 02:51:09;;;;;;;0.43;0.20;;;;;;;-0.90;52.47;100302.03;6172992;23;20075;-67
2022/11/15 02:53:53;;;;;;;0.20;0.20;;;;;;;-0.87;51.97;100298.97;6181371;23;20024;-67
2022/11/15 02:56:38;;;;;;;0.10;0.10;;;;;;;-0.92;51.58;100301.38;6148224;23;20048;-66
2022/11/15 02:59:52;;;;;;;0.17;0.17;;;;;;;-0.91;51.54;100287.75;6182821;23;20048;-66
2022/11/15 03:02:58;;;;;;;0.10;0.10;;;;;;;-0.93;51.48;100288.97;6146279;23;20438;-67
2022/11/15 03:05:53;;;;;;;0.10;0.10;;;;;;;-0.94;51.19;100288.13;6172111;23;20024;-66
2022/11/15 03:08:46;;;;;;;0.15;0.15;;;;;;;-0.92;50.91;100272.66;6146361;23;20031;-67
2022/11/15 03:11:38;;;;;;;0.10;0.10;;;;;;;-0.95;51.01;100273.03;6174248;23;20167;-66
2022/11/15 03:14:27;;;;;;;0.40;0.10;;;;;;;-1.00;51.18;100270.91;6180752;23;20021;-66
2022/11/15 03:17:19;;;;;;;0.10;0.10;;;;;;;-1.07;51.18;100274.53;6149537;23;20025;-65
2022/11/15 03:20:07;;;;;;;0.10;0.10;;;;;;;-1.10;51.14;100272.22;6173938;23;20071;-66
2022/11/15 03:22:56;;;;;;;0.10;0.10;;;;;;;-1.16;51.58;100260.38;6172463;23;20089;-65
2022/11/15 03:25:44;;;;;;;0.22;0.10;;;;;;;-1.24;52.47;100245.22;6179831;23;20029;-65
2022/11/15 03:28:36;;;;;;;0.10;0.10;;;;;;;-1.08;52.31;100267.50;6161374;23;20021;-65
2022/11/15 03:34:34;;;;;;;0.10;0.10;;;;;;;-0.91;51.79;100266.28;6175538;23;20047;-65
2022/11/15 03:37:25;;;;;;;0.20;0.10;;;;;;;-0.87;51.21;100264.06;6173963;23;20041;-66
2022/11/15 03:40:11;;;;;;;0.10;0.10;;;;;;;-0.85;50.78;100262.00;6172945;23;20017;-67
2022/11/15 03:43:04;;;;;;;0.10;0.10;;;;;;;-0.79;50.47;100277.34;6171836;23;20072;-67
2022/11/15 03:45:56;;;;;;;0.10;0.10;;;;;;;-0.80;50.13;100273.00;6174554;23;20275;-66
2022/11/15 03:48:46;;;;;;;0.15;0.10;;;;;;;-0.86;50.06;100276.44;6180419;23;20071;-66
2022/11/15 03:51:31;;;;;;;0.10;0.10;;;;;;;-0.93;50.42;100276.38;6171881;23;20048;-67
2022/11/15 03:54:16;;;;;;;0.10;0.10;;;;;;;-1.02;50.91;100267.59;6169655;23;20021;-67
2022/11/15 03:57:02;;;;;;;0.20;0.20;;;;;;;-1.14;51.63;100271.75;6184014;23;20032;-66
2022/11/15 03:59:46;;;;;;;0.10;0.10;;;;;;;-1.22;51.58;100270.00;6174432;23;20028;-67
2022/11/15 04:02:31;;;;;;;0.10;0.10;;;;;;;-1.30;51.71;100268.25;6186876;23;20429;-67
2022/11/15 04:05:16;;;;;;;0.10;0.10;;;;;;;-1.34;51.71;100266.09;6150623;23;20449;-66
2022/11/15 04:08:00;;;;;;;0.10;0.10;;;;;;;-1.30;52.11;100260.19;6187337;23;20068;-66
2022/11/15 04:10:45;;;;;;;0.10;0.10;;;;;;;-1.26;51.59;100260.66;6147082;23;20020;-67
2022/11/15 04:13:31;;;;;;;0.10;0.10;;;;;;;-1.36;51.48;100263.63;6185371;23;20024;-66
2022/11/15 04:16:15;;;;;;;0.10;0.10;;;;;;;-1.48;51.61;100251.69;6159173;23;20510;-66
2022/11/15 04:25:06;;;;;;;0.10;0.10;;;;;;;-1.43;52.24;100254.63;6178946;23;20039;-65
2022/11/15 04:27:50;;;;;;;0.30;0.10;;;;;;;-1.43;52.48;100255.50;6175691;23;20048;-65
2022/11/15 04:30:36;;;;;;;0.10;0.10;;;;;;;-1.35;52.04;100259.94;6186593;23;20031;-65
2022/11/15 04:33:21;;;;;;;0.28;0.10;;;;;;;-1.33;51.66;100255.22;6185791;23;20028;-65
2022/11/15 04:39:10;;;;;;;0.10;0.10;;;;;;;-1.28;51.48;100260.03;6186650;23;20460;-66
2022/11/15 04:41:55;;;;;;;0.10;0.10;;;;;;;-1.38;51.71;100248.72;6186421;23;20376;-65
2022/11/15 04:44:40;;;;;;;0.10;0.10;;;;;;;-1.41;51.94;100241.88;6160510;23;20414;-65
2022/11/15 04:47:27;;;;;;;0.10;0.10;;;;;;;-1.36;51.72;100249.38;6153481;23;20036;-65
2022/11/15 04:50:13;;;;;;;0.30;0.20;;;;;;;-1.35;51.28;100245.66;6188128;23;20021;-65
2022/11/15 05:11:33;;;;;;;0.10;0.10;;;;;;;-1.41;51.43;100231.13;6181430;23;20075;-65
2022/11/15 05:14:20;;;;;;;0.10;0.10;;;;;;;-1.29;51.03;100228.84;6177103;23;20017;-65
2022/11/15 05:17:05;;;;;;;0.10;0.10;;;;;;;-1.21;51.09;100219.84;6188848;23;20028;-65
2022/11/15 05:19:51;;;;;;;0.08;0.08;;;;;;;-1.16;51.03;100222.81;6178303;23;20025;-65
2022/11/15 05:22:36;;;;;;;0.10;0.10;;;;;;;-1.00;50.76;100227.16;6179161;23;20048;-65
2022/11/15 05:25:21;;;;;;;0.28;0.10;;;;;;;-0.90;50.37;100219.59;6173074;23;20132;-65
2022/11/15 05:28:05;;;;;;;0.13;0.13;;;;;;;-0.88;50.08;100230.16;6185142;23;20047;-65
2022/11/15 05:30:51;;;;;;;0.22;0.10;;;;;;;-0.95;50.27;100230.09;6176915;23;20025;-65
2022/11/15 05:33:38;;;;;;;0.13;0.13;;;;;;;-0.97;50.42;100228.59;6148655;23;20111;-65
2022/11/15 05:36:31;;;;;;;0.10;0.10;;;;;;;-0.92;50.57;100224.34;6181600;23;20028;-65
2022/11/15 05:39:16;;;;;;;0.10;0.10;;;;;;;-0.81;50.64;100220.31;6185412;23;20522;-65
2022/11/15 05:42:06;;;;;;;0.17;0.17;;;;;;;-0.75;50.16;100219.59;6182782;23;20028;-65
2022/11/15 05:44:51;;;;;;;0.40;0.10;;;;;;;-0.73;50.24;100211.31;6163999;23;20068;-66
2022/11/15 05:47:39;;;;;;;0.13;0.10;;;;;;;-0.70;50.22;100212.81;6168201;23;20028;-66
2022/11/15 05:50:23;;;;;;;;;;;;;;;-0.62;49.99;100210.81;6169488;23;20556;-66
2022/11/15 05:53:08;;;;;;;0.10;0.10;;;;;;;-0.58;50.00;100204.03;6141453;23;19920;-67
2022/11/15 05:55:53;;;;;;;0.10;0.10;;;;;;;-0.54;50.14;100201.81;6177172;23;20488;-66
2022/11/15 05:58:37;;;;;;;0.15;0.15;;;;;;;-0.49;49.81;100202.06;6180158;23;20020;-66
2022/11/15 06:01:23;;;;;;;0.20;0.20;;;;;;;-0.52;50.22;100185.50;6183913;23;20475;-66
2022/11/15 06:04:09;;;;;;;0.10;0.10;;;;;;;-0.44;50.00;100190.72;6176985;23;20021;-65
2022/11/15 06:06:53;;;;;;;0.10;0.10;;;;;;;-0.40;50.04;100199.25;6177559;23;20020;-66
2022/11/15 06:09:38;;;;;;;0.10;0.10;;;;;;;-0.48;49.92;100202.91;6178810;23;20052;-66
2022/11/15 06:12:22;;;;;;;0.40;0.20;;;;;;;-0.50;50.19;100204.94;6186290;23;20021;-66
2022/11/15 06:15:08;;;;;;;0.10;0.10;;;;;;;-0.50;49.69;100202.25;6180015;23;20465;-65
2022/11/15 06:17:57;;;;;;;0.10;0.10;;;;;;;-0.53;49.93;100200.78;6162069;23;20057;-65
2022/11/15 06:20:43;;;;;;;0.10;0.10;;;;;;;-0.48;50.08;100190.28;6146406;23;20032;-65
2022/11/15 06:23:31;;;;;;;0.55;0.20;;;;;;;-0.38;50.07;100191.81;6186588;23;20490;-65
2022/11/15 06:26:15;;;;;;;0.20;0.20;;;;;;;-0.25;49.86;100183.03;6189031;23;20017;-65
2022/11/15 06:28:59;;;;;;;0.17;0.17;;;;;;;-0.25;49.85;100183.88;6177727;23;20025;-65
2022/11/15 06:31:44;;;;;;;0.20;0.20;;;;;;;-0.32;49.89;100175.75;6177965;23;20060;-66
2022/11/15 06:34:29;;;;;;;0.10;0.10;;;;;;;-0.39;49.83;100182.94;6149995;23;20049;-67
2022/11/15 06:37:14;;;;;;;0.10;0.10;;;;;;;-0.44;50.01;100175.47;6183433;23;20056;-67
2022/11/15 06:39:59;;;;;;;0.10;0.10;;;;;;;-0.45;50.04;100173.81;6170483;23;20132;-66
2022/11/15 06:42:44;;;;;;;0.47;0.20;;;;;;;-0.46;50.19;100169.44;6154263;23;20021;-66
2022/11/15 06:45:29;;;;;;;0.32;0.13;;;;;;;-0.43;50.34;100174.44;6176009;23;20135;-65
2022/11/15 06:48:14;;;;;;;0.10;0.10;;;;;;;-0.41;50.20;100174.22;6149409;23;20021;-66
2022/11/15 06:51:00;;;;;;;0.40;0.20;;;;;;;-0.45;50.14;100165.75;6154911;23;20025;-66
2022/11/15 06:53:46;;;;;;;0.10;0.10;;;;;;;-0.42;49.85;100172.56;6173270;23;20041;-66
2022/11/15 06:56:30;;;;;;;0.10;0.10;;;;;;;-0.46;50.17;100171.28;6173448;23;20040;-66
2022/11/15 06:59:15;;;;;;;0.22;0.20;;;;;;;-0.52;50.34;100169.38;6172918;23;20100;-66
2022/11/15 07:01:59;;;;;;;0.17;0.10;;;;;;;-0.45;50.43;100164.91;6172328;23;20546;-65
2022/11/15 07:04:43;;;;;;;0.10;0.10;;;;;;;-0.46;50.56;100157.84;6183355;23;20468;-65
2022/11/15 07:07:29;;;;;;;0.10;0.10;;;;;;;-0.40;50.38;100156.25;6175032;23;20024;-65
2022/11/15 07:10:15;;;;;;;0.10;0.10;;;;;;;-0.43;50.23;100155.63;6185581;23;20024;-65
2022/11/15 07:13:00;;;;;;;0.10;0.10;;;;;;;-0.35;50.18;100149.28;6147007;23;20032;-65
2022/11/15 07:15:45;;;;;;;1.00;0.30;;;;;;;-0.31;50.20;100147.84;6185675;23;20483;-65
2022/11/15 07:18:29;;;;;;;0.10;0.10;;;;;;;-0.31;50.09;100147.03;6173277;23;20056;-66
2022/11/15 07:21:14;;;;;;;0.22;0.20;;;;;;;-0.40;50.32;100143.63;6183312;23;20025;-65
2022/11/15 07:23:58;;;;;;;0.10;0.10;;;;;;;-0.38;50.33;100141.63;6173745;23;20029;-67
2022/11/15 07:26:47;;;;;;;0.10;0.10;;;;;;;-0.19;49.89;100141.97;6150644;23;20107;-67
2022/11/15 07:29:31;;;;;;;0.20;0.20;;;;;;;-0.05;49.91;100138.34;6177615;23;20053;-66
2022/11/15 07:32:16;;;;;;;0.20;0.20;;;;;;;-0.01;49.75;100144.97;6188561;23;20025;-66
2022/11/15 07:35:01;;;;;;;0.15;0.15;;;;;;;-0.04;49.81;100134.63;6186593;23;20024;-66
2022/11/15 07:37:53;;;;;;;0.13;0.13;;;;;;;-0.09;49.68;100133.53;6177623;23;20107;-66
2022/11/15 07:40:38;;;;;;;0.10;0.10;;;;;;;-0.12;49.87;100125.88;6186597;23;20029;-66
2022/11/15 07:43:23;;;;;;;0.10;0.10;;;;;;;-0.17;49.85;100131.84;6176665;23;20021;-65
2022/11/15 07:46:09;;;;;;;0.10;0.10;;;;;;;-0.20;49.83;100130.34;6176176;23;20025;-66
2022/11/15 07:48:54;;;;;;;0.20;0.20;;;;;;;-0.21;50.07;100122.50;6153906;23;20044;-65
2022/11/15 07:51:38;;;;;;;0.13;0.10;;;;;;;-0.20;50.36;100122.28;6184947;23;20056;-66
2022/11/15 07:54:22;;;;;;;0.10;0.10;;;;;;;-0.20;50.22;100110.72;6188962;23;20021;-65
2022/11/15 07:57:09;;;;;;;0.85;0.10;;;;;;;-0.21;50.14;100106.38;6186376;23;20021;-66
2022/11/15 07:59:55;;;;;;;0.10;0.10;;;;;;;-0.34;50.33;100107.94;6151314;23;20028;-65
2022/11/15 08:02:40;;;;;;;0.17;0.17;;;;;;;-0.33;50.21;100109.59;6186270;23;20531;-65
2022/11/15 08:05:24;;;;;;;0.10;0.10;;;;;;;-0.36;50.20;100112.69;6184075;23;20450;-66
2022/11/15 08:08:11;;;;;;;0.22;0.10;;;;;;;-0.40;50.37;100099.81;6177870;23;20039;-65
2022/11/15 08:10:57;;;;;;;0.10;0.10;;;;;;;-0.34;50.08;100107.09;6176815;23;20404;-65
2022/11/15 08:13:42;;;;;;;0.10;0.10;;;;;;;-0.31;49.92;100110.22;6187706;23;20032;-66
2022/11/15 08:16:28;;;;;;;0.47;0.20;;;;;;;-0.31;49.91;100104.03;6166277;23;20024;-65
2022/11/15 08:19:13;;;;;;;0.20;0.20;;;;;;;-0.33;50.20;100089.94;6177695;23;20032;-65
2022/11/15 08:21:58;;;;;;;0.20;0.20;;;;;;;-0.30;50.23;100103.03;6184357;23;20021;-65
2022/11/15 08:24:43;;;;;;;0.20;0.20;;;;;;;-0.40;50.18;100091.78;6152044;23;20021;-66
2022/11/15 08:27:29;;;;;;;0.10;0.10;;;;;;;-0.12;49.72;100104.38;6129898;23;20071;-66
2022/11/15 08:30:15;;;;;;;0.10;0.10;;;;;;;0.14;49.34;100093.75;6187291;23;20048;-65
2022/11/15 08:33:02;;;;;;;0.93;0.22;;;;;;;0.22;49.34;100083.88;6177330;23;20334;-65
2022/11/15 08:35:48;;;;;;;0.20;0.20;;;;;;;0.25;49.43;100086.16;6177852;23;20291;-65
2022/11/15 08:38:33;;;;;;;0.10;0.10;;;;;;;0.39;49.03;100087.88;6174778;23;20112;-65
2022/11/15 08:41:24;;;;;;;0.10;0.10;;;;;;;0.50;48.73;100077.59;6175277;23;20148;-66
2022/11/15 08:44:09;;;;;;;0.20;0.20;;;;;;;0.49;48.58;100076.75;6179479;23;20029;-66
2022/11/15 08:46:54;;;;;;;0.20;0.20;;;;;;;0.41;49.12;100076.94;6182523;23;20108;-65
2022/11/15 08:49:40;;;;;;;0.20;0.20;;;;;;;0.39;49.27;100071.75;6186955;23;20028;-65
2022/11/15 08:52:24;;;;;;;0.20;0.20;;;;;;;0.55;48.84;100067.03;6149458;23;20028;-65
2022/11/15 08:55:09;;;;;;;0.30;0.20;;;;;;;0.67;48.79;100060.03;6154111;23;20025;-65
2022/11/15 08:57:56;;;;;;;0.52;0.20;;;;;;;0.80;48.72;100074.56;6132453;23;20021;-67
2022/11/15 09:00:41;;;;;;;0.10;0.10;;;;;;;0.83;48.12;100071.47;6187581;23;20378;-66
2022/11/15 09:03:25;;;;;;;0.10;0.10;;;;;;;0.81;48.16;100066.28;6155604;23;20021;-66
2022/11/15 09:06:11;;;;;;;0.20;0.20;;;;;;;0.84;47.90;100065.84;6189379;23;20025;-67
2022/11/15 09:08:56;;;;;;;0.93;0.28;;;;;;;0.80;48.13;100072.69;6179021;23;20192;-67
2022/11/15 09:11:40;;;;;;;0.10;0.10;;;;;;;0.69;48.42;100060.66;6179451;23;20070;-65
2022/11/15 09:14:25;;;;;;;0.15;0.15;;;;;;;0.55;48.70;100067.03;6179735;23;20028;-66
2022/11/15 09:17:10;;;;;;;0.10;0.10;;;;;;;0.54;48.77;100055.44;6156834;23;20021;-66
2022/11/15 09:19:54;;;;;;;0.17;0.10;;;;;;;0.53;48.75;100055.66;6188280;23;20064;-66
2022/11/15 09:22:40;;;;;;;0.20;0.20;;;;;;;0.41;48.70;100050.84;6177962;23;20073;-65
2022/11/15 09:25:25;;;;;;;0.30;0.17;;;;;;;0.28;49.02;100040.03;6188056;23;20020;-66
2022/11/15 09:28:09;;;;;;;0.10;0.10;;;;;;;0.20;49.40;100040.22;6177472;23;20464;-66
2022/11/15 09:30:57;;;;;;;0.40;0.10;;;;;;;0.17;49.48;100033.38;6175255;23;20140;-66
2022/11/15 09:33:44;;;;;;;1.15;0.20;;;;;;;0.18;49.63;100026.97;6178242;23;20020;-65
2022/11/15 09:36:28;;;;;;;0.10;0.10;;;;;;;0.27;49.48;100024.91;6151677;23;20027;-66
2022/11/15 09:39:14;;;;;;;0.10;0.10;;;;;;;0.32;49.43;100033.22;6176075;23;20025;-66
2022/11/15 09:42:10;;;;;;;0.25;0.15;;;;;;;0.36;49.45;100026.41;6184892;23;20032;-65
2022/11/15 09:45:20;;;;;;;0.10;0.10;;;;;;;0.38;49.46;100028.88;6184854;23;20465;-66
2022/11/15 09:48:29;;;;;;;0.20;0.20;;;;;;;0.28;49.56;100023.88;6185628;23;20485;-66
2022/11/15 09:51:33;;;;;;;0.13;0.13;;;;;;;0.21;49.55;100020.34;6027266;23;20030;-66
2022/11/15 09:54:05;;;;;;;0.10;0.10;;;;;;;0.17;49.91;100011.84;6157827;23;20465;-66
2022/11/15 09:56:36;;;;;;;0.20;0.20;;;;;;;0.13;49.94;100019.47;6172806;23;20028;-66
2022/11/15 09:59:21;;;;;;;0.10;0.10;;;;;;;0.08;50.14;100019.25;6176287;23;20342;-66
2022/11/15 10:01:56;;;;;;;0.43;0.20;;;;;;;0.05;50.01;100019.66;6185266;23;20031;-65
2022/11/15 10:04:23;;;;;;;0.30;0.20;;;;;;;-0.11;50.40;100020.81;6180425;23;20503;-66
2022/11/15 10:06:56;;;;;;;0.10;0.10;;;;;;;-0.06;50.67;100012.16;6187994;23;20021;-66
2022/11/15 10:09:27;;;;;;;0.10;0.10;;;;;;;-0.04;50.45;100015.47;6177343;23;20033;-66
2022/11/15 10:11:55;;;;;;;0.13;0.13;;;;;;;-0.01;50.37;100007.84;6149681;23;20068;-65
2022/11/15 10:14:23;;;;;;;0.15;0.15;;;;;;;0.03;50.76;100010.97;6186262;23;20095;-66
2022/11/15 10:17:09;;;;;;;0.17;0.17;;;;;;;0.10;50.36;100011.00;6187382;23;20498;-67
2022/11/15 10:19:47;;;;;;;0.20;0.20;;;;;;;0.13;50.15;100008.72;6177899;23;20041;-66
2022/11/15 10:22:20;;;;;;;;;;;;;;;0.12;50.13;100004.38;6176649;23;20120;-65
2022/11/15 10:24:47;;;;;;;0.10;0.10;;;;;;;0.22;50.12;99989.75;6188565;23;20366;-66
2022/11/15 10:27:17;;;;;;;0.20;0.20;;;;;;;0.20;50.28;99981.03;6179087;23;20398;-65
2022/11/15 10:29:44;;;;;;;0.20;0.20;;;;;;;0.06;50.50;99962.16;6177840;23;20048;-66
2022/11/15 10:32:11;;;;;;;0.13;0.13;;;;;;;0.01;50.76;99970.03;6184228;23;20534;-65
2022/11/15 10:34:37;;;;;;;0.20;0.20;;;;;;;0.02;51.00;99960.94;6174456;23;20087;-65
2022/11/15 10:37:04;;;;;;;0.20;0.20;;;;;;;0.03;50.94;99965.28;6178041;23;20017;-65
2022/11/15 10:39:30;;;;;;;0.10;0.10;;;;;;;0.03;51.09;99957.19;6152725;23;20028;-65
2022/11/15 10:41:56;;;;;;;0.17;0.15;;;;;;;0.01;51.22;99958.44;6160947;23;20074;-65
2022/11/15 10:44:26;;;;;;;0.10;0.10;;;;;;;0.12;51.29;99952.47;6188904;23;20028;-66
2022/11/15 10:47:24;;;;;;;0.10;0.10;;;;;;;0.25;50.95;99954.38;6178472;23;20040;-65
2022/11/15 10:50:02;;;;;;;0.10;0.10;;;;;;;0.22;50.84;99946.72;6099299;23;20064;-65
2022/11/15 10:52:31;;;;;;;0.10;0.10;;;;;;;0.24;51.01;99942.78;6148718;23;20113;-66
2022/11/15 10:55:05;;;;;;;0.30;0.13;;;;;;;0.22;51.24;99946.72;6159243;23;20080;-65
2022/11/15 10:57:35;;;;;;;0.17;0.10;;;;;;;0.17;51.31;99936.56;6147419;23;20025;-65
2022/11/15 11:00:05;;;;;;;0.22;0.20;;;;;;;0.13;51.28;99925.34;6158414;23;20021;-66
2022/11/15 11:02:35;;;;;;;0.52;0.20;;;;;;;0.12;51.57;99942.53;6097877;23;20025;-66
2022/11/15 11:05:04;;;;;;;0.10;0.10;;;;;;;0.11;51.35;99930.13;6149374;23;20024;-65
2022/11/15 11:07:33;;;;;;;0.10;0.10;;;;;;;0.13;51.27;99936.13;6146234;23;20032;-65
2022/11/15 11:10:02;;;;;;;0.20;0.20;;;;;;;0.13;51.22;99921.84;6146477;23;20022;-65
2022/11/15 11:12:31;;;;;;;0.25;0.10;;;;;;;0.17;51.12;99916.91;6095694;23;20067;-66
2022/11/15 11:14:59;;;;;;;0.10;0.10;;;;;;;0.09;51.24;99915.22;6119955;23;20017;-65
2022/11/15 11:17:42;;;;;;;0.10;0.10;;;;;;;0.00;51.32;99903.84;6157113;23;20025;-65
2022/11/15 11:20:18;;;;;;;0.10;0.10;;;;;;;0.08;51.53;99903.63;6154478;23;20021;-65
2022/11/15 11:22:57;;;;;;;0.20;0.20;;;;;;;0.12;51.73;99907.56;6146378;23;20032;-67
2022/11/15 11:25:32;;;;;;;0.10;0.10;;;;;;;0.12;51.48;99914.81;6146068;23;20389;-67
2022/11/15 11:28:14;;;;;;;0.10;0.10;;;;;;;0.04;51.35;99902.41;6155841;23;20029;-66
2022/11/15 11:30:52;;;;;;;0.13;0.13;;;;;;;0.04;51.72;99910.47;6153943;23;20562;-67
2022/11/15 11:33:24;;;;;;;0.10;0.10;;;;;;;0.06;51.70;99912.94;6144472;23;20037;-67
2022/11/15 11:36:03;;;;;;;0.10;0.10;;;;;;;0.09;51.62;99902.59;6154378;23;20021;-66
2022/11/15 11:38:42;;;;;;;0.10;0.10;;;;;;;0.04;51.73;99898.88;6145979;23;20029;-67
2022/11/15 11:41:20;;;;;;;0.10;0.10;;;;;;;0.09;51.48;99899.91;6145521;23;20421;-66
2022/11/15 11:43:58;;;;;;;0.20;0.20;;;;;;;0.13;51.77;99901.16;6154758;23;20113;-66
2022/11/15 11:46:55;;;;;;;0.20;0.20;;;;;;;0.14;51.61;99889.38;6146442;23;20099;-65
2022/11/15 11:49:28;;;;;;;0.10;0.10;;;;;;;0.10;51.78;99880.06;6102540;23;20472;-65
2022/11/15 11:52:05;;;;;;;0.20;0.20;;;;;;;0.07;51.90;99888.53;6183089;23;20021;-65
2022/11/15 11:54:38;;;;;;;0.20;0.20;;;;;;;0.06;52.29;99889.56;6158718;23;20025;-66
2022/11/15 11:57:12;;;;;;;0.10;0.10;;;;;;;0.01;52.54;99892.06;6184306;23;20017;-65
2022/11/15 11:59:48;;;;;;;0.20;0.20;;;;;;;-0.01;53.08;99883.34;6186180;23;20025;-66
2022/11/15 12:02:21;;;;;;;0.10;0.10;;;;;;;-0.12;53.29;99881.25;6173688;23;20095;-65
2022/11/15 12:04:53;;;;;;;0.20;0.20;;;;;;;-0.22;53.78;99885.16;6157682;23;20173;-65
2022/11/15 12:07:24;;;;;;;0.10;0.10;;;;;;;-0.23;54.23;99885.38;6175797;23;20025;-65
2022/11/15 12:09:58;;;;;;;1.35;0.10;;;;;;;-0.25;54.44;99885.56;6149253;23;20032;-65
2022/11/15 12:12:31;;;;;;;0.20;0.20;;;;;;;-0.31;54.76;99870.25;6185423;23;20028;-65
2022/11/15 12:15:02;;;;;;;0.20;0.20;;;;;;;-0.26;54.96;99888.44;6146712;23;20075;-65
2022/11/15 12:17:31;;;;;;;0.20;0.17;;;;;;;-0.34;55.51;99884.06;6174317;23;20017;-67
2022/11/15 12:19:59;;;;;;;;;;;;;;;-0.50;56.37;99867.25;6186080;23;20140;-65
2022/11/15 12:22:36;;;;;;;0.10;0.10;;;;;;;-0.41;56.69;99870.59;6176813;23;19920;-66
2022/11/15 12:25:08;;;;;;;0.25;0.20;;;;;;;-0.44;57.46;99865.63;6186304;23;20484;-67
2022/11/15 12:27:39;;;;;;;0.10;0.10;;;;;;;-0.51;58.19;99857.53;6175041;23;20031;-67
2022/11/15 12:30:12;;;;;;;0.10;0.10;;;;;;;-0.57;58.79;99861.03;6184212;23;20049;-67
2022/11/15 12:32:48;;;;;;;0.20;0.20;;;;;;;-0.59;59.46;99863.09;6176098;23;20122;-66
2022/11/15 12:35:25;;;;;;;0.10;0.10;;;;;;;-0.80;60.98;99862.16;6187727;23;20025;-66
2022/11/15 12:37:51;;;;;;;0.10;0.10;;;;;;;-0.94;61.34;99860.41;6150487;23;20469;-67
2022/11/15 12:40:27;;;;;;;0.20;0.20;;;;;;;-0.94;61.94;99865.78;6177666;23;20029;-66
2022/11/15 12:43:27;;;;;;;0.20;0.20;;;;;;;-0.97;62.29;99864.34;6179036;23;20017;-66
2022/11/15 12:46:04;;;;;;;0.10;0.10;;;;;;;-1.01;63.26;99849.66;6129892;23;20029;-67
2022/11/15 12:49:02;;;;;;;0.20;0.20;;;;;;;-1.08;63.70;99857.69;6160610;23;20432;-65
2022/11/15 12:52:08;;;;;;;0.30;0.28;;;;;;;-1.08;64.44;99849.63;6161559;23;20116;-65
2022/11/15 12:55:00;;;;;;;0.10;0.10;;;;;;;-1.12;64.93;99847.53;6189148;23;20029;-66
2022/11/15 12:57:47;;;;;;;0.10;0.10;;;;;;;-1.25;65.50;99826.78;6164586;23;20027;-66
2022/11/15 13:00:43;;;;;;;0.20;0.20;;;;;;;-1.23;66.11;99832.81;6175288;23;20031;-66
2022/11/15 13:03:31;;;;;;;0.10;0.10;;;;;;;-1.26;65.86;99830.50;6189715;23;20025;-66
2022/11/15 13:06:32;;;;;;;0.10;0.10;;;;;;;-1.18;66.03;99823.13;6137746;23;20025;-67
2022/11/15 13:09:27;;;;;;;0.10;0.10;;;;;;;-1.12;66.01;99821.50;6153648;23;20029;-65
2022/11/15 13:11:58;;;;;;;0.13;0.13;;;;;;;-1.08;66.40;99819.25;6189135;23;20059;-66
2022/11/15 13:14:45;;;;;;;0.10;0.10;;;;;;;-1.24;67.52;99818.53;6188292;23;20013;-66
2022/11/15 13:17:29;;;;;;;0.10;0.10;;;;;;;-1.33;68.27;99819.72;6150557;23;20369;-67
2022/11/15 13:20:37;;;;;;;0.10;0.10;;;;;;;-1.38;68.93;99811.44;6152605;23;20029;-67
2022/11/15 13:23:10;;;;;;;0.10;0.10;;;;;;;-1.36;69.50;99804.00;6178690;23;20029;-66
2022/11/15 13:26:12;;;;;;;0.10;0.10;;;;;;;-1.46;69.71;99797.16;6190156;23;20017;-67